Arnos Vale, Saint Vincent

11:05 PM AST on October 25, 2014 (GMT -0400)
E T Joshua | Change Station
CLOSE
Current Station
Airport
Location: Arnos Vale,
Elevation: 43 ft
Nearby Weather Stations

Elev 43 ft 13.14 °N, 61.21 °W | Updated 5 minutes ago

Scattered Clouds
Scattered Clouds
82 °F
Feels Like 90 °F
N
10
Wind Variable Wind from East

Today
High -- | Low -- °F
--% Chance of Precip.
Yesterday
High -- | Low -- °F
Precip. -- in
5:56 AM 5:40 PM
Waxing Crescent, 5% visible
Pressure 29.89 in
Visibility 6.2 miles
Clouds Scattered Clouds 1700 ft
Heat Index 90 °F
Dew Point 75 °F
Humidity 79%
Rainfall 0.00 in
Snow Depth Not available.
UV 0 out of 12
Pollen Not available.
Air Quality Not available.
Flu Activity Not available.
METAR TVSV 260300Z 08009KT 9999 SCT017 28/24 Q1012

More Conditions Fewer Conditions

Pressure 29.89 in
Visibility 6.2 miles
Clouds Scattered Clouds 1700 ft
Heat Index 90 °F
Dew Point 75 °F
Humidity 79%
Rainfall 0.00 in
Snow Depth Not available.
UV 0 out of 12
Pollen Not available.
Air Quality Not available.
Flu Activity Not available.
METAR TVSV 260300Z 08009KT 9999 SCT017 28/24 Q1012

More Conditions Fewer Conditions

10-Day Weather Forecast

Almanac

Astronomy

Oct. 25, 2014 Rise Set
Actual Time 5:56 AM AST 5:40 PM AST
Civil Twilight 5:35 AM AST 6:02 PM AST
Nautical Twilight 5:10 AM AST 6:27 PM AST
Astronomical Twilight 4:45 AM AST 6:52 PM AST
Moon 7:20 AM AST (10/25) 7:13 PM AST (10/25)
Length of Visible Light 12h 27m
Length of Day
11h 43m
Tomorrow will be 0m 39s shorter.
Waxing Crescent, 5% of the Moon is Illuminated
Today
Waxing Crescent
Oct 30
First Quarter
Nov 6
Full
Nov 14
Last Quarter
Nov 22
New

Today's Extremes

Country Highs Country Lows

Community

WunderPhotos

Upload Photos

1,765,091 photos uploaded!

Nearby

Snow Depth

Not available.

Earthquake Activity

City Distance Mag. Time & Date
No recent earthquake activity has been reported nearby.
Minimum magnitude displayed is 2.5.

Coastal Water Temperatures

Place Temperature
No Stations Reporting

Nearby Weather Stations